LNI924 WADD-WAAA
Flight info
| Callsign | LNI924 |
|---|---|
| Flight time | 0h 55m |
| Altitude | 39000 |
| Route | PEDET W41 LIPOT |
| Aircraft | A339/H-SADE1E2E3GHIJ3J5M1P2RWXY/LB2D1 |
Departure
| Time | 2026-04-22 13:37 |
|---|---|
| Airport | Denpasar I Gusti Ngurah Rai International Airport (WADD) |
Arrival
| Time | 2026-04-22 14:32 |
|---|---|
| Airport | Sultan Hasanuddin International Airport (WAAA) |
| Time | Latitude | Longitude | Altitude | Speed | Heading |
|---|---|---|---|---|---|
| 2026-04-22 13:25 | -8.74559 | 115.16541 | 39 ft | 0 kts | 358° |
| 2026-04-22 13:26 | -8.74571 | 115.16541 | 38 ft | 3 kts | 358° |
| 2026-04-22 13:27 | -8.74591 | 115.16542 | 39 ft | 3 kts | 358° |
| 2026-04-22 13:27 | -8.74611 | 115.16543 | 36 ft | 3 kts | 357° |
| 2026-04-22 13:27 | -8.74632 | 115.16544 | 35 ft | 3 kts | 357° |
| 2026-04-22 13:27 | -8.74648 | 115.16544 | 39 ft | 3 kts | 353° |
| 2026-04-22 13:28 | -8.74666 | 115.16545 | 35 ft | 3 kts | 327° |
| 2026-04-22 13:28 | -8.74679 | 115.16553 | 37 ft | 3 kts | 292° |
| 2026-04-22 13:28 | -8.74685 | 115.16570 | 34 ft | 3 kts | 271° |
| 2026-04-22 13:28 | -8.74685 | 115.16589 | 37 ft | 2 kts | 267° |
| 2026-04-22 13:29 | -8.74685 | 115.16596 | 35 ft | 1 kts | 268° |
| 2026-04-22 13:29 | -8.74685 | 115.16597 | 35 ft | 0 kts | 268° |
| 2026-04-22 13:33 | -8.74685 | 115.16594 | 36 ft | 2 kts | 268° |
| 2026-04-22 13:33 | -8.74686 | 115.16575 | 35 ft | 4 kts | 268° |
| 2026-04-22 13:33 | -8.74687 | 115.16542 | 37 ft | 6 kts | 268° |
| 2026-04-22 13:33 | -8.74689 | 115.16488 | 38 ft | 11 kts | 268° |
| 2026-04-22 13:34 | -8.74693 | 115.16387 | 38 ft | 18 kts | 267° |
| 2026-04-22 13:34 | -8.74700 | 115.16240 | 38 ft | 24 kts | 268° |
| 2026-04-22 13:34 | -8.74707 | 115.16051 | 39 ft | 29 kts | 267° |
| 2026-04-22 13:34 | -8.74715 | 115.15878 | 38 ft | 26 kts | 268° |
| 2026-04-22 13:35 | -8.74722 | 115.15696 | 38 ft | 26 kts | 268° |
| 2026-04-22 13:35 | -8.74730 | 115.15512 | 38 ft | 24 kts | 268° |
| 2026-04-22 13:35 | -8.74732 | 115.15453 | 38 ft | 7 kts | 268° |
| 2026-04-22 13:35 | -8.74760 | 115.15407 | 38 ft | 9 kts | 221° |
| 2026-04-22 13:36 | -8.74829 | 115.15393 | 35 ft | 12 kts | 178° |
| 2026-04-22 13:36 | -8.74892 | 115.15441 | 34 ft | 12 kts | 103° |
| 2026-04-22 13:36 | -8.74890 | 115.15576 | 35 ft | 46 kts | 87° |
| 2026-04-22 13:36 | -8.74862 | 115.16199 | 34 ft | 128 kts | 87° |
| 2026-04-22 13:37 | -8.74817 | 115.17298 | 57 ft | 184 kts | 88° |
| 2026-04-22 13:37 | -8.74773 | 115.18540 | 975 ft | 173 kts | 89° |
| 2026-04-22 13:37 | -8.74745 | 115.19785 | 1774 ft | 177 kts | 87° |
| 2026-04-22 13:37 | -8.74666 | 115.21088 | 2407 ft | 195 kts | 85° |
| 2026-04-22 13:38 | -8.74565 | 115.22525 | 2934 ft | 215 kts | 85° |
| 2026-04-22 13:38 | -8.74323 | 115.25805 | 3756 ft | 254 kts | 76° |
| 2026-04-22 13:38 | -8.73693 | 115.27513 | 4208 ft | 264 kts | 65° |
| 2026-04-22 13:39 | -8.72888 | 115.29188 | 4863 ft | 267 kts | 63° |
| 2026-04-22 13:39 | -8.72072 | 115.30856 | 5501 ft | 270 kts | 64° |
| 2026-04-22 13:39 | -8.71263 | 115.32577 | 6152 ft | 272 kts | 65° |
| 2026-04-22 13:39 | -8.70472 | 115.34328 | 6777 ft | 275 kts | 65° |
| 2026-04-22 13:40 | -8.69690 | 115.36101 | 7408 ft | 277 kts | 66° |
| 2026-04-22 13:40 | -8.68907 | 115.37888 | 8037 ft | 280 kts | 66° |
| 2026-04-22 13:40 | -8.68115 | 115.39697 | 8672 ft | 282 kts | 66° |
| 2026-04-22 13:40 | -8.67316 | 115.41516 | 9294 ft | 285 kts | 66° |
| 2026-04-22 13:41 | -8.66515 | 115.43334 | 9901 ft | 288 kts | 65° |
| 2026-04-22 13:41 | -8.65690 | 115.45204 | 10329 ft | 298 kts | 65° |
| 2026-04-22 13:41 | -8.64818 | 115.47176 | 10485 ft | 317 kts | 65° |
| 2026-04-22 13:41 | -8.63894 | 115.49265 | 10649 ft | 334 kts | 65° |
| 2026-04-22 13:42 | -8.62935 | 115.51432 | 11045 ft | 341 kts | 66° |
| 2026-04-22 13:42 | -8.61965 | 115.53626 | 11585 ft | 343 kts | 65° |
| 2026-04-22 13:42 | -8.60988 | 115.55835 | 12126 ft | 346 kts | 65° |
| 2026-04-22 13:42 | -8.60004 | 115.58059 | 12661 ft | 348 kts | 65° |
| 2026-04-22 13:43 | -8.59011 | 115.60304 | 13183 ft | 351 kts | 65° |
| 2026-04-22 13:43 | -8.58010 | 115.62565 | 13718 ft | 354 kts | 65° |
| 2026-04-22 13:43 | -8.57013 | 115.64815 | 14165 ft | 357 kts | 65° |
| 2026-04-22 13:43 | -8.55997 | 115.67110 | 14632 ft | 359 kts | 65° |
| 2026-04-22 13:44 | -8.54975 | 115.69421 | 15098 ft | 361 kts | 66° |
| 2026-04-22 13:44 | -8.53994 | 115.71767 | 15506 ft | 364 kts | 62° |
| 2026-04-22 13:44 | -8.52497 | 115.73827 | 15950 ft | 367 kts | 45° |
| 2026-04-22 13:44 | -8.50582 | 115.75542 | 16397 ft | 369 kts | 39° |
| 2026-04-22 13:45 | -8.48571 | 115.77167 | 16819 ft | 372 kts | 39° |
| 2026-04-22 13:45 | -8.46584 | 115.78800 | 17238 ft | 374 kts | 40° |
| 2026-04-22 13:45 | -8.44593 | 115.80507 | 17676 ft | 377 kts | 41° |
| 2026-04-22 13:45 | -8.42615 | 115.82256 | 18106 ft | 379 kts | 41° |
| 2026-04-22 13:46 | -8.40636 | 115.84032 | 18482 ft | 382 kts | 42° |
| 2026-04-22 13:46 | -8.38650 | 115.85823 | 18865 ft | 384 kts | 42° |
| 2026-04-22 13:46 | -8.36651 | 115.87625 | 19246 ft | 386 kts | 42° |
| 2026-04-22 13:46 | -8.34641 | 115.89434 | 19626 ft | 388 kts | 42° |
| 2026-04-22 13:47 | -8.32643 | 115.91230 | 20023 ft | 390 kts | 41° |
| 2026-04-22 13:47 | -8.30608 | 115.93058 | 20383 ft | 393 kts | 41° |
| 2026-04-22 13:47 | -8.28559 | 115.94897 | 20772 ft | 396 kts | 41° |
| 2026-04-22 13:47 | -8.26495 | 115.96749 | 21150 ft | 398 kts | 41° |
| 2026-04-22 13:48 | -8.24418 | 115.98612 | 21539 ft | 400 kts | 41° |
| 2026-04-22 13:48 | -8.22330 | 116.00485 | 21911 ft | 403 kts | 41° |
| 2026-04-22 13:48 | -8.20229 | 116.02369 | 22307 ft | 406 kts | 41° |
| 2026-04-22 13:48 | -8.18112 | 116.04267 | 22702 ft | 408 kts | 41° |
| 2026-04-22 13:49 | -8.15988 | 116.06172 | 23111 ft | 410 kts | 41° |
| 2026-04-22 13:49 | -8.13874 | 116.08066 | 23457 ft | 413 kts | 41° |
| 2026-04-22 13:49 | -8.11724 | 116.09993 | 23798 ft | 415 kts | 41° |
| 2026-04-22 13:49 | -8.09559 | 116.11932 | 24135 ft | 417 kts | 41° |
| 2026-04-22 13:50 | -8.08120 | 116.13222 | 24361 ft | 418 kts | 41° |
| 2026-04-22 13:50 | -8.05199 | 116.15838 | 24801 ft | 421 kts | 41° |
| 2026-04-22 13:50 | -8.03003 | 116.17805 | 25146 ft | 423 kts | 41° |
| 2026-04-22 13:50 | -8.00798 | 116.19779 | 25472 ft | 425 kts | 41° |
| 2026-04-22 13:51 | -7.98580 | 116.21764 | 25796 ft | 427 kts | 41° |
| 2026-04-22 13:51 | -7.96385 | 116.23730 | 26131 ft | 429 kts | 41° |
| 2026-04-22 13:51 | -7.94150 | 116.25730 | 26450 ft | 431 kts | 41° |
| 2026-04-22 13:51 | -7.91904 | 116.27740 | 26764 ft | 433 kts | 41° |
| 2026-04-22 13:52 | -7.89644 | 116.29762 | 27062 ft | 435 kts | 41° |
| 2026-04-22 13:52 | -7.87372 | 116.31795 | 27387 ft | 437 kts | 41° |
| 2026-04-22 13:52 | -7.85093 | 116.33833 | 27710 ft | 439 kts | 41° |
| 2026-04-22 13:52 | -7.82798 | 116.35885 | 28006 ft | 442 kts | 41° |
| 2026-04-22 13:53 | -7.80497 | 116.37943 | 28316 ft | 444 kts | 41° |
| 2026-04-22 13:53 | -7.78183 | 116.40012 | 28619 ft | 445 kts | 41° |
| 2026-04-22 13:53 | -7.75893 | 116.42058 | 28903 ft | 448 kts | 41° |
| 2026-04-22 13:53 | -7.73555 | 116.44148 | 29204 ft | 450 kts | 41° |
| 2026-04-22 13:54 | -7.71207 | 116.46246 | 29496 ft | 452 kts | 41° |
| 2026-04-22 13:54 | -7.68849 | 116.48354 | 29799 ft | 454 kts | 41° |
| 2026-04-22 13:54 | -7.66480 | 116.50471 | 30078 ft | 456 kts | 41° |
| 2026-04-22 13:54 | -7.64103 | 116.52594 | 30323 ft | 458 kts | 41° |
| 2026-04-22 13:55 | -7.61709 | 116.54733 | 30600 ft | 460 kts | 41° |
| 2026-04-22 13:55 | -7.59307 | 116.56878 | 30869 ft | 462 kts | 41° |
| 2026-04-22 13:55 | -7.56927 | 116.59003 | 31148 ft | 464 kts | 41° |
| 2026-04-22 13:55 | -7.54505 | 116.61164 | 31415 ft | 467 kts | 41° |
| 2026-04-22 13:56 | -7.52073 | 116.63343 | 31677 ft | 469 kts | 43° |
| 2026-04-22 13:56 | -7.49795 | 116.65701 | 31906 ft | 471 kts | 49° |
| 2026-04-22 13:56 | -7.47697 | 116.68242 | 32154 ft | 473 kts | 50° |
| 2026-04-22 13:56 | -7.45585 | 116.70790 | 32385 ft | 475 kts | 50° |
| 2026-04-22 13:57 | -7.43451 | 116.73343 | 32593 ft | 476 kts | 50° |
| 2026-04-22 13:57 | -7.41312 | 116.75894 | 32791 ft | 478 kts | 50° |
| 2026-04-22 13:57 | -7.39162 | 116.78455 | 32944 ft | 480 kts | 50° |
| 2026-04-22 13:57 | -7.37034 | 116.80990 | 33109 ft | 481 kts | 50° |
| 2026-04-22 13:58 | -7.34870 | 116.83568 | 33244 ft | 482 kts | 50° |
| 2026-04-22 13:58 | -7.32702 | 116.86151 | 33354 ft | 483 kts | 50° |
| 2026-04-22 13:58 | -7.30531 | 116.88738 | 33508 ft | 484 kts | 50° |
| 2026-04-22 13:58 | -7.28361 | 116.91324 | 33656 ft | 483 kts | 50° |
| 2026-04-22 13:59 | -7.26190 | 116.93910 | 33828 ft | 483 kts | 50° |
| 2026-04-22 13:59 | -7.24019 | 116.96496 | 33988 ft | 483 kts | 50° |
| 2026-04-22 13:59 | -7.21883 | 116.99041 | 34135 ft | 483 kts | 50° |
| 2026-04-22 13:59 | -7.19713 | 117.01625 | 34282 ft | 482 kts | 50° |
| 2026-04-22 14:00 | -7.17550 | 117.04200 | 34430 ft | 482 kts | 50° |
| 2026-04-22 14:00 | -7.15386 | 117.06777 | 34584 ft | 481 kts | 50° |
| 2026-04-22 14:00 | -7.13227 | 117.09347 | 34738 ft | 481 kts | 50° |
| 2026-04-22 14:00 | -7.11065 | 117.11920 | 34875 ft | 481 kts | 50° |
| 2026-04-22 14:01 | -7.08907 | 117.14489 | 35014 ft | 481 kts | 50° |
| 2026-04-22 14:01 | -7.06746 | 117.17059 | 35164 ft | 481 kts | 50° |
| 2026-04-22 14:01 | -7.04589 | 117.19626 | 35294 ft | 480 kts | 50° |
| 2026-04-22 14:01 | -7.02459 | 117.22160 | 35457 ft | 480 kts | 50° |
| 2026-04-22 14:02 | -7.00299 | 117.24728 | 35617 ft | 480 kts | 50° |
| 2026-04-22 14:02 | -6.98143 | 117.27291 | 35781 ft | 480 kts | 50° |
| 2026-04-22 14:02 | -6.95987 | 117.29854 | 35938 ft | 480 kts | 50° |
| 2026-04-22 14:02 | -6.93833 | 117.32415 | 36115 ft | 479 kts | 50° |
| 2026-04-22 14:03 | -6.91679 | 117.34975 | 36278 ft | 479 kts | 50° |
| 2026-04-22 14:03 | -6.89523 | 117.37536 | 36446 ft | 479 kts | 50° |
| 2026-04-22 14:03 | -6.87369 | 117.40097 | 36619 ft | 479 kts | 50° |
| 2026-04-22 14:03 | -6.85216 | 117.42654 | 36791 ft | 479 kts | 50° |
| 2026-04-22 14:04 | -6.83092 | 117.45177 | 36955 ft | 479 kts | 50° |
| 2026-04-22 14:04 | -6.80938 | 117.47736 | 37127 ft | 479 kts | 50° |
| 2026-04-22 14:04 | -6.78784 | 117.50293 | 37292 ft | 479 kts | 50° |
| 2026-04-22 14:04 | -6.76632 | 117.52849 | 37454 ft | 479 kts | 50° |
| 2026-04-22 14:05 | -6.74476 | 117.55408 | 37635 ft | 479 kts | 50° |
| 2026-04-22 14:05 | -6.72328 | 117.57958 | 37805 ft | 478 kts | 50° |
| 2026-04-22 14:05 | -6.68022 | 117.63003 | 38108 ft | 478 kts | 46° |
| 2026-04-22 14:06 | -6.65619 | 117.65310 | 38266 ft | 478 kts | 42° |
| 2026-04-22 14:06 | -6.63154 | 117.67551 | 38414 ft | 478 kts | 42° |
| 2026-04-22 14:06 | -6.60703 | 117.69806 | 38579 ft | 477 kts | 42° |
| 2026-04-22 14:06 | -6.58257 | 117.72067 | 38724 ft | 477 kts | 43° |
| 2026-04-22 14:07 | -6.55819 | 117.74325 | 38880 ft | 477 kts | 43° |
| 2026-04-22 14:07 | -6.50943 | 117.78839 | 38920 ft | 475 kts | 43° |
| 2026-04-22 14:08 | -6.46111 | 117.83307 | 38921 ft | 475 kts | 43° |
| 2026-04-22 14:08 | -6.41242 | 117.87807 | 38921 ft | 476 kts | 43° |
| 2026-04-22 14:09 | -6.36369 | 117.92309 | 38918 ft | 476 kts | 43° |
| 2026-04-22 14:09 | -6.31492 | 117.96815 | 38920 ft | 476 kts | 43° |
| 2026-04-22 14:10 | -6.26650 | 118.01286 | 38920 ft | 476 kts | 43° |
| 2026-04-22 14:10 | -6.21770 | 118.05790 | 38921 ft | 476 kts | 43° |
| 2026-04-22 14:11 | -6.16894 | 118.10290 | 38920 ft | 476 kts | 43° |
| 2026-04-22 14:11 | -6.12009 | 118.14797 | 38918 ft | 476 kts | 43° |
| 2026-04-22 14:12 | -6.07123 | 118.19304 | 38537 ft | 477 kts | 43° |
| 2026-04-22 14:12 | -6.04707 | 118.21532 | 37865 ft | 479 kts | 43° |
| 2026-04-22 14:12 | -6.02240 | 118.23804 | 36927 ft | 483 kts | 43° |
| 2026-04-22 14:12 | -5.99749 | 118.26099 | 35781 ft | 489 kts | 43° |
| 2026-04-22 14:13 | -5.97230 | 118.28421 | 34552 ft | 494 kts | 43° |
| 2026-04-22 14:13 | -5.94686 | 118.30766 | 33292 ft | 498 kts | 43° |
| 2026-04-22 14:13 | -5.92141 | 118.33113 | 32112 ft | 495 kts | 43° |
| 2026-04-22 14:13 | -5.89611 | 118.35445 | 31114 ft | 490 kts | 43° |
| 2026-04-22 14:14 | -5.88796 | 118.36196 | 30898 ft | 487 kts | 43° |
| 2026-04-22 14:14 | -5.87437 | 118.37448 | 30538 ft | 481 kts | 43° |
| 2026-04-22 14:14 | -5.84986 | 118.39706 | 29793 ft | 475 kts | 43° |
| 2026-04-22 14:15 | -5.82569 | 118.41933 | 29142 ft | 468 kts | 43° |
| 2026-04-22 14:15 | -5.80182 | 118.44132 | 28480 ft | 463 kts | 43° |
| 2026-04-22 14:15 | -5.77824 | 118.46305 | 27816 ft | 458 kts | 43° |
| 2026-04-22 14:15 | -5.75488 | 118.48464 | 27155 ft | 454 kts | 43° |
| 2026-04-22 14:16 | -5.73176 | 118.50602 | 26451 ft | 451 kts | 43° |
| 2026-04-22 14:16 | -5.70913 | 118.52694 | 25862 ft | 446 kts | 43° |
| 2026-04-22 14:16 | -5.68637 | 118.54797 | 25237 ft | 442 kts | 43° |
| 2026-04-22 14:16 | -5.66377 | 118.56885 | 24589 ft | 439 kts | 43° |
| 2026-04-22 14:17 | -5.64135 | 118.58955 | 23939 ft | 436 kts | 43° |
| 2026-04-22 14:17 | -5.61911 | 118.61009 | 23262 ft | 434 kts | 43° |
| 2026-04-22 14:17 | -5.59705 | 118.63045 | 22642 ft | 427 kts | 43° |
| 2026-04-22 14:17 | -5.57531 | 118.65051 | 22016 ft | 422 kts | 43° |
| 2026-04-22 14:18 | -5.55386 | 118.67032 | 21385 ft | 416 kts | 43° |
| 2026-04-22 14:18 | -5.53269 | 118.68986 | 20724 ft | 412 kts | 43° |
| 2026-04-22 14:18 | -5.51176 | 118.70918 | 20148 ft | 406 kts | 43° |
| 2026-04-22 14:18 | -5.49139 | 118.72797 | 19505 ft | 402 kts | 43° |
| 2026-04-22 14:19 | -5.47097 | 118.74682 | 18930 ft | 396 kts | 43° |
| 2026-04-22 14:19 | -5.45074 | 118.76548 | 18344 ft | 391 kts | 43° |
| 2026-04-22 14:19 | -5.43079 | 118.78389 | 17716 ft | 386 kts | 43° |
| 2026-04-22 14:19 | -5.41118 | 118.80198 | 17133 ft | 379 kts | 43° |
| 2026-04-22 14:20 | -5.37297 | 118.83721 | 15996 ft | 367 kts | 43° |
| 2026-04-22 14:20 | -5.35430 | 118.85443 | 15417 ft | 362 kts | 43° |
| 2026-04-22 14:20 | -5.33587 | 118.87142 | 14807 ft | 359 kts | 43° |
| 2026-04-22 14:21 | -5.30251 | 118.90719 | 13752 ft | 347 kts | 62° |
| 2026-04-22 14:21 | -5.29485 | 118.92944 | 13196 ft | 340 kts | 81° |
| 2026-04-22 14:22 | -5.29488 | 118.97719 | 12668 ft | 358 kts | 91° |
| 2026-04-22 14:22 | -5.29510 | 119.00242 | 12664 ft | 362 kts | 90° |
| 2026-04-22 14:22 | -5.29486 | 119.05289 | 12565 ft | 362 kts | 89° |
| 2026-04-22 14:23 | -5.29467 | 119.07817 | 11983 ft | 364 kts | 89° |
| 2026-04-22 14:23 | -5.29448 | 119.10331 | 11441 ft | 356 kts | 89° |
| 2026-04-22 14:23 | -5.29433 | 119.12761 | 10850 ft | 351 kts | 89° |
| 2026-04-22 14:23 | -5.29419 | 119.15208 | 10316 ft | 350 kts | 89° |
| 2026-04-22 14:24 | -5.29407 | 119.17655 | 9726 ft | 351 kts | 90° |
| 2026-04-22 14:24 | -5.29396 | 119.20043 | 9404 ft | 334 kts | 90° |
| 2026-04-22 14:24 | -5.29385 | 119.22365 | 8812 ft | 329 kts | 90° |
| 2026-04-22 14:24 | -5.29375 | 119.24585 | 8595 ft | 306 kts | 90° |
| 2026-04-22 14:25 | -5.29366 | 119.26642 | 8286 ft | 285 kts | 90° |
| 2026-04-22 14:25 | -5.29358 | 119.28610 | 7614 ft | 280 kts | 90° |
| 2026-04-22 14:25 | -5.29349 | 119.30554 | 6901 ft | 277 kts | 90° |
| 2026-04-22 14:25 | -5.29340 | 119.32488 | 6342 ft | 276 kts | 90° |
| 2026-04-22 14:26 | -5.29332 | 119.34340 | 6129 ft | 260 kts | 90° |
| 2026-04-22 14:26 | -5.29324 | 119.36115 | 5769 ft | 252 kts | 90° |
| 2026-04-22 14:26 | -5.29316 | 119.37857 | 5434 ft | 244 kts | 90° |
| 2026-04-22 14:26 | -5.29309 | 119.39511 | 5309 ft | 230 kts | 90° |
| 2026-04-22 14:27 | -5.29293 | 119.41066 | 5202 ft | 215 kts | 87° |
| 2026-04-22 14:27 | -5.28887 | 119.42451 | 5084 ft | 203 kts | 58° |
| 2026-04-22 14:27 | -5.27952 | 119.43456 | 4954 ft | 194 kts | 39° |
| 2026-04-22 14:27 | -5.26817 | 119.44214 | 4568 ft | 199 kts | 31° |
| 2026-04-22 14:28 | -5.25611 | 119.44895 | 4146 ft | 204 kts | 30° |
| 2026-04-22 14:28 | -5.24378 | 119.45616 | 3698 ft | 206 kts | 31° |
| 2026-04-22 14:28 | -5.23142 | 119.46336 | 3271 ft | 205 kts | 30° |
| 2026-04-22 14:28 | -5.21906 | 119.47053 | 2860 ft | 204 kts | 31° |
| 2026-04-22 14:29 | -5.20698 | 119.47756 | 2564 ft | 198 kts | 30° |
| 2026-04-22 14:29 | -5.19529 | 119.48434 | 2302 ft | 189 kts | 30° |
| 2026-04-22 14:29 | -5.18445 | 119.49062 | 2069 ft | 171 kts | 30° |
| 2026-04-22 14:29 | -5.17783 | 119.49447 | 1919 ft | 161 kts | 30° |
| 2026-04-22 14:30 | -5.16548 | 119.50164 | 1660 ft | 156 kts | 31° |
| 2026-04-22 14:30 | -5.15629 | 119.50696 | 1451 ft | 151 kts | 31° |
| 2026-04-22 14:30 | -5.14706 | 119.51232 | 1267 ft | 151 kts | 30° |
| 2026-04-22 14:30 | -5.13811 | 119.51750 | 1093 ft | 152 kts | 31° |
| 2026-04-22 14:31 | -5.12909 | 119.52272 | 896 ft | 145 kts | 31° |
| 2026-04-22 14:31 | -5.12014 | 119.52792 | 699 ft | 149 kts | 31° |
| 2026-04-22 14:31 | -5.11437 | 119.53126 | 584 ft | 143 kts | 32° |
| 2026-04-22 14:31 | -5.10558 | 119.53648 | 388 ft | 144 kts | 31° |
| 2026-04-22 14:32 | -5.09398 | 119.54315 | 148 ft | 147 kts | 30° |
| 2026-04-22 14:32 | -5.08550 | 119.54796 | 47 ft | 117 kts | 30° |
| 2026-04-22 14:32 | -5.08105 | 119.55052 | 46 ft | 43 kts | 30° |
| 2026-04-22 14:32 | -5.07921 | 119.55157 | 47 ft | 29 kts | 30° |
| 2026-04-22 14:33 | -5.07760 | 119.55244 | 45 ft | 20 kts | 15° |
| 2026-04-22 14:33 | -5.07703 | 119.55217 | 46 ft | 7 kts | 313° |
| 2026-04-22 14:33 | -5.07664 | 119.55151 | 47 ft | 10 kts | 302° |
| 2026-04-22 14:33 | -5.07642 | 119.55116 | 47 ft | 7 kts | 302° |
| 2026-04-22 14:34 | -5.07637 | 119.55108 | 47 ft | 2 kts | 302° |
| 2026-04-22 14:34 | -5.07624 | 119.55088 | 47 ft | 5 kts | 302° |
| 2026-04-22 14:34 | -5.07605 | 119.55057 | 47 ft | 0 kts | 301° |
| 2026-04-22 14:34 | -5.07601 | 119.55049 | 47 ft | 2 kts | 301° |
| 2026-04-22 14:35 | -5.07586 | 119.55016 | 47 ft | 4 kts | 286° |
| 2026-04-22 14:35 | -5.07583 | 119.54997 | 47 ft | 4 kts | 279° |
| 2026-04-22 14:35 | -5.07588 | 119.54965 | 47 ft | 6 kts | 261° |
| 2026-04-22 14:35 | -5.07605 | 119.54921 | 47 ft | 8 kts | 239° |
| 2026-04-22 14:36 | -5.07616 | 119.54909 | 47 ft | 0 kts | 227° |
| 2026-04-22 14:36 | -5.07622 | 119.54905 | 47 ft | 4 kts | 221° |
| 2026-04-22 14:36 | -5.07633 | 119.54876 | 47 ft | 5 kts | 265° |
| 2026-04-22 14:37 | -5.07617 | 119.54837 | 47 ft | 7 kts | 295° |
| 2026-04-22 14:37 | -5.07613 | 119.54831 | 47 ft | 0 kts | 296° |
| 2026-04-22 14:38 | -5.07556 | 119.54859 | 46 ft | 0 kts | 300° |